Winigan, MO

6:39 PM CDT on July 12, 2014 (GMT -0500)
Chillicothe (KCDJ) Elev 768 ft | 39.82 °N, 93.58 °W | Change Station

Current weather conditions updated 47 minutes ago

Thunderstorm
Thunderstorm
90 °F
Feels Like 98 °F
N
13
Wind Variable Wind from SSW
Gusts 18 mph

Tomorrow is forecast to be Cooler than today.

Today
High -- | Low -- °F
--% Chance of Precip.
Yesterday
High -- | Low -- °F
Precip. -- in
5:53 AM 8:41 PM
Full, 100% visible
Pressure 29.91 in
Visibility -9999.0 miles
Clouds
Heat Index 98 °F
Dew Point 73 °F
Humidity 57%
Rainfall 0.00 in
Snow Depth Not available.
UV Not available.
Pollen 4.20 out of 12
Air Quality Not available.
Flu Activity Sporadic
METAR KCDJ 122252Z AUTO 20011KT 32/23 A2996 RMK AO1 SLP128 T03220228

More Conditions Fewer Conditions

Pressure 29.91 in
Visibility -9999.0 miles
Clouds
Heat Index 98 °F
Dew Point 73 °F
Humidity 57%
Rainfall 0.00 in
Snow Depth Not available.
UV Not available.
Pollen 4.20 out of 12
Air Quality Not available.
Flu Activity Sporadic
METAR KCDJ 122252Z AUTO 20011KT 32/23 A2996 RMK AO1 SLP128 T03220228

More Conditions Fewer Conditions

10-Day Weather Forecast

Almanac

Astronomy

Jul. 12, 2014 Rise Set
Actual Time 5:53 AM CDT 8:41 PM CDT
Civil Twilight 5:21 AM CDT 9:13 PM CDT
Nautical Twilight 4:40 AM CDT 9:53 PM CDT
Astronomical Twilight 3:54 AM CDT 10:39 PM CDT
Moon 8:43 PM CDT 6:13 AM CDT
Length of Visible Light 15h 52m
Length of Day
14h 48m
Tomorrow will be 1m 14s shorter.
Full, 100% of the Moon is Illuminated
Today
Full
Jul 18
Last Quarter
Jul 26
New
Aug 3
First Quarter
Aug 10
Full

Today's Extremes

State Highs State Lows

Community

WunderPhotos

Upload Photos

1,733,003 photos uploaded!

Nearby

Snow Depth

Station Depth Elevation
No new snow has been reported.

Earthquake Activity

City Distance Mag. Time & Date
No recent earthquake activity has been reported nearby.
Minimum magnitude displayed is 2.5.

Coastal Water Temperatures

Place Temperature
No Stations Reporting

Nearby Weather Stations

Station Location Temp. Heat Index Dew Point Humidity Wind Precip. Elev Updated Type
North Central Missouri, Browning, MO 87.8 °F 99 °F 76 °F 68% SSW  at  3.0 mph 0.00 in / hr 810 ft 6:38 PM CDT Rapid Fire
La Plata, La Plata, MO 90.5 °F 101 °F 75 °F 61% SW  at  9.8 mph 0.00 in / hr 928 ft 6:39 PM CDT Rapid Fire
Unionville MO, Unionville, MO 85.6 °F 95 °F 76 °F 72% SW  at  8.3 mph 0.00 in / hr 1053 ft 6:38 PM CDT Rapid Fire
RAWS ATLANTA MO MO, Atlanta, MO 90 °F 100 °F 75 °F 61% SW  at  9 mph 0.00 in / hr 839 ft 5:13 PM CDT MADIS

Show More Stations Show Fewer Stations